Laval-Ouest, Canada
Current Conditions -  °F | °C
As of 1:54 PM on Sunday 23 Nov 2014 (Local Time) from CYUL Reporting Station
Haze Haze  
Wind Chill: 39°   Ceiling: 300
Heat Index: 43°   Visibility: 1mi
Dew Point: 41°   Wind: 7mph
Humidity: 93%   Direction: 150°SSE
Pressure: 30.03"   Gusts: NA
Location:  45.55°N, 73.87°W
Report Text: CYUL 231854Z 15006KT 1SM R24R/P6000FT/N R24L/P6000FT/U BR OVC003 06/05 A3003 RMK ST8 SLP170
Loading
Personal Weather Stations






























Interactive Weather Map New forecast layout! Learn more

10-Day Weather Forecast

Advertisements
Track Severe Weather on mobile